Time,TemperatureF,DewpointF,PressureIn,WindDirection,WindDirectionDegrees,WindSpeedMPH,WindSpeedGustMPH,Humidity,HourlyPrecipIn,Conditions,Clouds,dailyrainin,SolarRadiationWatts/m^2,SoftwareType,DateUTC
2013-05-27 00:00:00,45.0,45.0,-100.00,SSW,206,8.0,17.0,100,0.00,,,0.30,0.000000,,2013-05-27 07:00:00,
2013-05-27 00:21:00,45.0,45.0,-100.00,SSW,206,8.0,17.0,100,0.00,,,0.30,0.000000,,2013-05-27 07:21:00,
2013-05-27 00:32:00,45.0,45.0,-100.00,SSW,206,8.0,17.0,100,0.00,,,0.30,0.000000,,2013-05-27 07:32:00,
2013-05-27 00:42:00,45.0,45.0,-100.00,SSW,206,8.0,17.0,100,0.00,,,0.30,0.000000,,2013-05-27 07:42:00,
2013-05-27 00:52:00,45.0,45.0,-100.00,SSW,206,8.0,17.0,100,0.00,,,0.30,0.000000,,2013-05-27 07:52:00,
2013-05-27 01:00:00,43.0,43.0,-100.00,SSW,206,9.0,18.0,100,0.00,,,0.30,0.000000,,2013-05-27 08:00:00,
2013-05-27 01:22:00,43.0,43.0,-100.00,SSW,206,9.0,18.0,100,0.00,,,0.30,0.000000,,2013-05-27 08:22:00,
2013-05-27 01:33:00,43.0,43.0,-100.00,SSW,206,9.0,18.0,100,0.00,,,0.30,0.000000,,2013-05-27 08:33:00,
2013-05-27 01:42:00,43.0,43.0,-100.00,SSW,206,9.0,18.0,100,0.00,,,0.30,0.000000,,2013-05-27 08:42:00,
2013-05-27 01:52:00,43.0,43.0,-100.00,SSW,206,9.0,18.0,100,0.00,,,0.30,0.000000,,2013-05-27 08:52:00,
2013-05-27 02:00:00,43.0,43.0,-100.00,SSW,205,9.0,16.0,100,0.00,,,0.30,0.000000,,2013-05-27 09:00:00,
2013-05-27 02:22:00,43.0,43.0,-100.00,SSW,205,9.0,16.0,100,0.00,,,0.30,0.000000,,2013-05-27 09:22:00,
2013-05-27 02:33:00,43.0,43.0,-100.00,SSW,205,9.0,16.0,100,0.00,,,0.30,0.000000,,2013-05-27 09:33:00,
2013-05-27 02:42:00,43.0,43.0,-100.00,SSW,205,9.0,16.0,100,0.00,,,0.30,0.000000,,2013-05-27 09:42:00,
2013-05-27 02:53:00,43.0,43.0,-100.00,SSW,205,9.0,16.0,100,0.00,,,0.30,0.000000,,2013-05-27 09:53:00,
2013-05-27 03:00:00,43.0,43.0,-100.00,SSW,206,5.0,14.0,100,0.00,,,0.30,0.000000,,2013-05-27 10:00:00,
2013-05-27 03:23:00,43.0,43.0,-100.00,SSW,206,5.0,14.0,100,0.00,,,0.30,0.000000,,2013-05-27 10:23:00,
2013-05-27 03:32:00,43.0,43.0,-100.00,SSW,206,5.0,14.0,100,0.00,,,0.30,0.000000,,2013-05-27 10:32:00,
2013-05-27 03:42:00,43.0,43.0,-100.00,SSW,206,5.0,14.0,100,0.00,,,0.30,0.000000,,2013-05-27 10:42:00,
2013-05-27 03:52:00,43.0,43.0,-100.00,SSW,206,5.0,14.0,100,0.00,,,0.30,0.000000,,2013-05-27 10:52:00,
2013-05-27 04:00:00,44.0,44.0,-100.00,East,79,6.0,14.0,100,0.00,,,0.30,0.000000,,2013-05-27 11:00:00,
2013-05-27 04:22:00,44.0,44.0,-100.00,East,79,6.0,14.0,100,0.00,,,0.30,0.000000,,2013-05-27 11:22:00,
2013-05-27 04:32:00,44.0,44.0,-100.00,East,79,6.0,14.0,100,0.00,,,0.30,0.000000,,2013-05-27 11:32:00,
2013-05-27 04:42:00,44.0,44.0,-100.00,East,79,6.0,14.0,100,0.00,,,0.30,0.000000,,2013-05-27 11:42:00,
2013-05-27 04:52:00,44.0,44.0,-100.00,East,79,6.0,14.0,100,0.00,,,0.30,0.000000,,2013-05-27 11:52:00,
2013-05-27 05:00:00,45.0,45.0,-100.00,ENE,76,8.0,14.0,100,0.00,,,0.30,0.000000,,2013-05-27 12:00:00,
2013-05-27 05:22:00,45.0,45.0,-100.00,ENE,76,8.0,14.0,100,0.00,,,0.30,0.000000,,2013-05-27 12:22:00,
2013-05-27 05:32:00,45.0,45.0,-100.00,ENE,76,8.0,14.0,100,0.00,,,0.30,0.000000,,2013-05-27 12:32:00,
2013-05-27 05:42:00,45.0,45.0,-100.00,ENE,76,8.0,14.0,100,0.00,,,0.30,0.000000,,2013-05-27 12:42:00,
2013-05-27 05:52:00,45.0,45.0,-100.00,ENE,76,8.0,14.0,100,0.00,,,0.30,0.000000,,2013-05-27 12:52:00,
2013-05-27 06:00:00,45.0,45.0,-100.00,ENE,72,10.0,17.0,100,0.01,,,-99.99,1.000000,,2013-05-27 13:00:00,
2013-05-27 06:22:00,45.0,45.0,-100.00,ENE,72,10.0,17.0,100,0.01,,,-99.99,1.000000,,2013-05-27 13:22:00,
2013-05-27 06:32:00,45.0,45.0,-100.00,ENE,72,10.0,17.0,100,0.01,,,-99.99,1.000000,,2013-05-27 13:32:00,
2013-05-27 06:42:00,45.0,45.0,-100.00,ENE,72,10.0,17.0,100,0.01,,,-99.99,1.000000,,2013-05-27 13:42:00,
2013-05-27 06:52:00,45.0,45.0,-100.00,ENE,72,10.0,17.0,100,0.01,,,-99.99,1.000000,,2013-05-27 13:52:00,
2013-05-27 07:00:00,45.0,45.0,-100.00,ENE,75,10.0,17.0,100,0.06,,,-99.99,12.000000,,2013-05-27 14:00:00,
2013-05-27 07:22:00,45.0,45.0,-100.00,ENE,75,10.0,17.0,100,0.06,,,-99.99,12.000000,,2013-05-27 14:22:00,
2013-05-27 07:32:00,45.0,45.0,-100.00,ENE,75,10.0,17.0,100,0.06,,,-99.99,12.000000,,2013-05-27 14:32:00,
2013-05-27 07:42:00,45.0,45.0,-100.00,ENE,75,10.0,17.0,100,0.06,,,-99.99,12.000000,,2013-05-27 14:42:00,
2013-05-27 07:52:00,45.0,45.0,-100.00,ENE,75,10.0,17.0,100,0.06,,,-99.99,12.000000,,2013-05-27 14:52:00,
2013-05-27 08:00:00,45.0,45.0,-100.00,ENE,68,14.0,21.0,100,0.04,,,0.40,59.000000,,2013-05-27 15:00:00,
2013-05-27 08:22:00,45.0,45.0,-100.00,ENE,68,14.0,21.0,100,0.04,,,0.40,59.000000,,2013-05-27 15:22:00,
2013-05-27 08:33:00,45.0,45.0,-100.00,ENE,68,14.0,21.0,100,0.04,,,0.40,59.000000,,2013-05-27 15:33:00,
2013-05-27 08:43:00,45.0,45.0,-100.00,ENE,68,14.0,21.0,100,0.04,,,0.40,59.000000,,2013-05-27 15:43:00,
2013-05-27 08:53:00,45.0,45.0,-100.00,ENE,68,14.0,21.0,100,0.04,,,0.40,59.000000,,2013-05-27 15:53:00,
2013-05-27 09:00:00,45.0,45.0,-100.00,East,79,14.0,24.0,100,0.05,,,0.44,63.000000,,2013-05-27 16:00:00,
2013-05-27 09:23:00,45.0,45.0,-100.00,East,79,14.0,24.0,100,0.05,,,0.44,63.000000,,2013-05-27 16:23:00,
2013-05-27 09:33:00,45.0,45.0,-100.00,East,79,14.0,24.0,100,0.05,,,0.44,63.000000,,2013-05-27 16:33:00,
2013-05-27 09:42:00,45.0,45.0,-100.00,East,79,14.0,24.0,100,0.05,,,0.44,63.000000,,2013-05-27 16:42:00,
2013-05-27 09:52:00,45.0,45.0,-100.00,East,79,14.0,24.0,100,0.05,,,0.44,63.000000,,2013-05-27 16:52:00,
2013-05-27 10:00:00,43.0,43.0,-100.00,ENE,74,13.0,21.0,100,0.09,,,0.53,103.000000,,2013-05-27 17:00:00,
2013-05-27 10:22:00,43.0,43.0,-100.00,ENE,74,13.0,21.0,100,0.09,,,0.53,103.000000,,2013-05-27 17:22:00,
2013-05-27 10:32:00,43.0,43.0,-100.00,ENE,74,13.0,21.0,100,0.09,,,0.53,103.000000,,2013-05-27 17:32:00,
2013-05-27 10:43:00,43.0,43.0,-100.00,ENE,74,13.0,21.0,100,0.09,,,0.53,103.000000,,2013-05-27 17:43:00,
2013-05-27 10:52:00,43.0,43.0,-100.00,ENE,74,13.0,21.0,100,0.09,,,0.53,103.000000,,2013-05-27 17:52:00,
2013-05-27 11:00:00,43.0,43.0,-100.00,ENE,76,13.0,19.0,100,0.10,,,0.63,128.000000,,2013-05-27 18:00:00,
2013-05-27 11:22:00,43.0,43.0,-100.00,ENE,76,13.0,19.0,100,0.10,,,0.63,128.000000,,2013-05-27 18:22:00,
2013-05-27 11:32:00,43.0,43.0,-100.00,ENE,76,13.0,19.0,100,0.10,,,0.63,128.000000,,2013-05-27 18:32:00,
2013-05-27 11:42:00,43.0,43.0,-100.00,ENE,76,13.0,19.0,100,0.10,,,0.63,128.000000,,2013-05-27 18:42:00,
2013-05-27 11:52:00,43.0,43.0,-100.00,ENE,76,13.0,19.0,100,0.10,,,0.63,128.000000,,2013-05-27 18:52:00,
2013-05-27 12:00:00,44.0,44.0,-100.00,ENE,75,10.0,19.0,100,0.05,,,0.67,184.000000,,2013-05-27 19:00:00,
2013-05-27 12:22:00,44.0,44.0,-100.00,ENE,75,10.0,19.0,100,0.05,,,0.67,184.000000,,2013-05-27 19:22:00,
2013-05-27 12:32:00,44.0,44.0,-100.00,ENE,75,10.0,19.0,100,0.05,,,0.67,184.000000,,2013-05-27 19:32:00,
2013-05-27 12:42:00,44.0,44.0,-100.00,ENE,75,10.0,19.0,100,0.05,,,0.67,184.000000,,2013-05-27 19:42:00,
2013-05-27 12:52:00,44.0,44.0,-100.00,ENE,75,10.0,19.0,100,0.05,,,0.67,184.000000,,2013-05-27 19:52:00,
2013-05-27 13:00:00,46.0,46.0,-100.00,East,85,8.0,15.0,100,0.07,,,0.73,205.000000,,2013-05-27 20:00:00,
2013-05-27 13:22:00,46.0,46.0,-100.00,East,85,8.0,15.0,100,0.07,,,0.73,205.000000,,2013-05-27 20:22:00,
2013-05-27 13:32:00,46.0,46.0,-100.00,East,85,8.0,15.0,100,0.07,,,0.73,205.000000,,2013-05-27 20:32:00,
2013-05-27 13:42:00,46.0,46.0,-100.00,East,85,8.0,15.0,100,0.07,,,0.73,205.000000,,2013-05-27 20:42:00,
2013-05-27 13:52:00,46.0,46.0,-100.00,East,85,8.0,15.0,100,0.07,,,0.73,205.000000,,2013-05-27 20:52:00,
2013-05-27 14:00:00,47.0,47.0,-100.00,SE,136,3.0,14.0,100,0.08,,,0.78,209.000000,,2013-05-27 21:00:00,
2013-05-27 14:22:00,47.0,47.0,-100.00,SE,136,3.0,14.0,100,0.08,,,0.78,209.000000,,2013-05-27 21:22:00,
2013-05-27 14:33:00,47.0,47.0,-100.00,SE,136,3.0,14.0,100,0.08,,,0.78,209.000000,,2013-05-27 21:33:00,
2013-05-27 14:43:00,47.0,47.0,-100.00,SE,136,3.0,14.0,100,0.08,,,0.78,209.000000,,2013-05-27 21:43:00,
2013-05-27 14:53:00,47.0,47.0,-100.00,SE,136,3.0,14.0,100,0.08,,,0.78,209.000000,,2013-05-27 21:53:00,
2013-05-27 15:00:00,48.0,48.0,-100.00,SSW,203,10.0,16.0,100,0.05,,,0.69,215.000000,,2013-05-27 22:00:00,
2013-05-27 15:23:00,48.0,48.0,-100.00,SSW,203,10.0,16.0,100,0.05,,,0.69,215.000000,,2013-05-27 22:23:00,
2013-05-27 15:33:00,48.0,48.0,-100.00,SSW,203,10.0,16.0,100,0.05,,,0.69,215.000000,,2013-05-27 22:33:00,
2013-05-27 15:42:00,48.0,48.0,-100.00,SSW,203,10.0,16.0,100,0.05,,,0.69,215.000000,,2013-05-27 22:42:00,
2013-05-27 15:53:00,48.0,48.0,-100.00,SSW,203,10.0,16.0,100,0.05,,,0.69,215.000000,,2013-05-27 22:53:00,
2013-05-27 16:00:00,50.0,50.0,-100.00,SSW,206,10.0,19.0,100,0.03,,,0.71,244.000000,,2013-05-27 23:00:00,
2013-05-27 16:22:00,50.0,50.0,-100.00,SSW,206,10.0,19.0,100,0.03,,,0.71,244.000000,,2013-05-27 23:22:00,
2013-05-27 16:32:00,50.0,50.0,-100.00,SSW,206,10.0,19.0,100,0.03,,,0.71,244.000000,,2013-05-27 23:32:00,
2013-05-27 16:42:00,50.0,50.0,-100.00,SSW,206,10.0,19.0,100,0.03,,,0.71,244.000000,,2013-05-27 23:42:00,
2013-05-27 16:52:00,50.0,50.0,-100.00,SSW,206,10.0,19.0,100,0.03,,,0.71,244.000000,,2013-05-27 23:52:00,
2013-05-27 17:00:00,50.0,50.0,-100.00,SSW,209,10.0,21.0,100,0.05,,,0.75,150.000000,,2013-05-28 00:00:00,
2013-05-27 17:22:00,50.0,50.0,-100.00,SSW,209,10.0,21.0,100,0.05,,,0.75,150.000000,,2013-05-28 00:22:00,
2013-05-27 17:32:00,50.0,50.0,-100.00,SSW,209,10.0,21.0,100,0.05,,,0.75,150.000000,,2013-05-28 00:32:00,
2013-05-27 17:42:00,50.0,50.0,-100.00,SSW,209,10.0,21.0,100,0.05,,,0.75,150.000000,,2013-05-28 00:42:00,
2013-05-27 17:52:00,50.0,50.0,-100.00,SSW,209,10.0,21.0,100,0.05,,,0.75,150.000000,,2013-05-28 00:52:00,
2013-05-27 18:00:00,49.0,49.0,-100.00,SSW,209,11.0,21.0,100,0.01,,,0.74,123.000000,,2013-05-28 01:00:00,
2013-05-27 18:22:00,49.0,49.0,-100.00,SSW,209,11.0,21.0,100,0.01,,,0.74,123.000000,,2013-05-28 01:22:00,
2013-05-27 18:32:00,49.0,49.0,-100.00,SSW,209,11.0,21.0,100,0.01,,,0.74,123.000000,,2013-05-28 01:32:00,
2013-05-27 18:42:00,49.0,49.0,-100.00,SSW,209,11.0,21.0,100,0.01,,,0.74,123.000000,,2013-05-28 01:42:00,
2013-05-27 18:52:00,49.0,49.0,-100.00,SSW,209,11.0,21.0,100,0.01,,,0.74,123.000000,,2013-05-28 01:52:00,
2013-05-27 19:00:00,46.0,46.0,-100.00,SSW,209,13.0,23.0,100,0.01,,,0.72,90.000000,,2013-05-28 02:00:00,
2013-05-27 19:22:00,46.0,46.0,-100.00,SSW,209,13.0,23.0,100,0.01,,,0.72,90.000000,,2013-05-28 02:22:00,
2013-05-27 19:32:00,46.0,46.0,-100.00,SSW,209,13.0,23.0,100,0.01,,,0.72,90.000000,,2013-05-28 02:32:00,
2013-05-27 19:42:00,46.0,46.0,-100.00,SSW,209,13.0,23.0,100,0.01,,,0.72,90.000000,,2013-05-28 02:42:00,
2013-05-27 19:52:00,46.0,46.0,-100.00,SSW,209,13.0,23.0,100,0.01,,,0.72,90.000000,,2013-05-28 02:52:00,
2013-05-27 20:00:00,45.0,45.0,-100.00,SSW,208,12.0,22.0,100,0.00,,,0.71,37.000000,,2013-05-28 03:00:00,
2013-05-27 20:22:00,45.0,45.0,-100.00,SSW,208,12.0,22.0,100,0.00,,,0.71,37.000000,,2013-05-28 03:22:00,
2013-05-27 20:33:00,45.0,45.0,-100.00,SSW,208,12.0,22.0,100,0.00,,,0.71,37.000000,,2013-05-28 03:33:00,
2013-05-27 20:43:00,45.0,45.0,-100.00,SSW,208,12.0,22.0,100,0.00,,,0.71,37.000000,,2013-05-28 03:43:00,
2013-05-27 20:53:00,45.0,45.0,-100.00,SSW,208,12.0,22.0,100,0.00,,,0.71,37.000000,,2013-05-28 03:53:00,
2013-05-27 21:00:00,46.0,46.0,-100.00,SSW,210,10.0,20.0,100,0.01,,,0.71,14.000000,,2013-05-28 04:00:00,
2013-05-27 21:23:00,46.0,46.0,-100.00,SSW,210,10.0,20.0,100,0.01,,,0.71,14.000000,,2013-05-28 04:23:00,
2013-05-27 21:33:00,46.0,46.0,-100.00,SSW,210,10.0,20.0,100,0.01,,,0.71,14.000000,,2013-05-28 04:33:00,
2013-05-27 21:43:00,46.0,46.0,-100.00,SSW,210,10.0,20.0,100,0.01,,,0.71,14.000000,,2013-05-28 04:43:00,
2013-05-27 21:52:00,46.0,46.0,-100.00,SSW,210,10.0,20.0,100,0.01,,,0.71,14.000000,,2013-05-28 04:52:00,
2013-05-27 22:00:00,46.0,46.0,-100.00,SSW,204,13.0,21.0,100,0.01,,,0.72,0.000000,,2013-05-28 05:00:00,
2013-05-27 22:22:00,46.0,46.0,-100.00,SSW,204,13.0,21.0,100,0.01,,,0.72,0.000000,,2013-05-28 05:22:00,
2013-05-27 22:33:00,46.0,46.0,-100.00,SSW,204,13.0,21.0,100,0.01,,,0.72,0.000000,,2013-05-28 05:33:00,
2013-05-27 22:42:00,46.0,46.0,-100.00,SSW,204,13.0,21.0,100,0.01,,,0.72,0.000000,,2013-05-28 05:42:00,
2013-05-27 22:52:00,46.0,46.0,-100.00,SSW,204,13.0,21.0,100,0.01,,,0.72,0.000000,,2013-05-28 05:52:00,
2013-05-27 23:00:00,44.0,44.0,-100.00,SSW,206,14.0,29.0,100,0.00,,,0.72,0.000000,,2013-05-28 06:00:00,
2013-05-27 23:22:00,44.0,44.0,-100.00,SSW,206,14.0,29.0,100,0.00,,,0.72,0.000000,,2013-05-28 06:22:00,
2013-05-27 23:32:00,44.0,44.0,-100.00,SSW,206,14.0,29.0,100,0.00,,,0.72,0.000000,,2013-05-28 06:32:00,
2013-05-27 23:42:00,44.0,44.0,-100.00,SSW,206,14.0,29.0,100,0.00,,,0.72,0.000000,,2013-05-28 06:42:00,
2013-05-27 23:52:00,44.0,44.0,-100.00,SSW,206,14.0,29.0,100,0.00,,,0.72,0.000000,,2013-05-28 06:52:00,